Saigon Express — VRBT7 — position and weather

sailwx.info

Track history (hours):
 
Tides and Currents Weather Stations Pressure Air Temp Water Temp Dewpoint Dewpoint Depression Visibility Wind Speed Wind Dir Waves Ship Positions

Saigon Express

Last reported at 2014-Oct-26 07:33 UTC. Time now 2014-Oct-26 07:43 UTC.
Position N 39°05' W 032°03'.

Length 260 m; draft 11.8 m.

Type: Ship (hazmat cat A). MMSI: 477106800.

Date/timePositionNaut miles runAvg speedWind from/ knotsBaromVisibWave heightAir tempDewpointWater temp
2014-Oct-26 07:33N 39°05' W 032°03'  
2014-Oct-19 00:28N 32°06' W 080°60'6 6.6
2014-Oct-18 23:33N 32°06' W 081°07'2 1.4
2014-Oct-18 22:21N 32°08' W 081°08'0 0.0
2014-Oct-18 21:33N 32°08' W 081°08'0 0.0
2014-Oct-18 20:33N 32°08' W 081°08'0 0.0
2014-Oct-18 19:29N 32°08' W 081°08'0 0.0
2014-Oct-18 18:33N 32°08' W 081°08'0 0.0
2014-Oct-18 17:32N 32°08' W 081°08'0 0.0
2014-Oct-18 16:32N 32°08' W 081°08'0 0.0
2014-Oct-18 15:33N 32°08' W 081°08'0 0.0
2014-Oct-18 14:33N 32°08' W 081°08'0 0.0
2014-Oct-18 13:29N 32°08' W 081°08'0 0.0
2014-Oct-18 12:33N 32°08' W 081°08'0 0.0
2014-Oct-18 11:30N 32°08' W 081°08'0 0.0
2014-Oct-18 10:29N 32°08' W 081°08'0 0.0
2014-Oct-18 09:32N 32°08' W 081°08'2 2.4
2014-Oct-18 08:31N 32°06' W 081°06'6 5.9
2014-Oct-18 07:33N 32°06' W 080°60'1312.5
2014-Oct-18 06:33N 31°60' W 080°47'38114.0
2014-Oct-17 03:21N 36°50' W 075°48'1215.1
2014-Oct-17 02:33N 36°57' W 076°00'16 2.0
2014-Oct-16 18:31N 36°54' W 076°20'0 0.0
2014-Oct-16 17:13N 36°54' W 076°20'0 0.0
2014-Oct-16 13:31N 36°54' W 076°20'0 0.0
2014-Oct-16 11:28N 36°54' W 076°20'0 0.0
2014-Oct-16 10:04N 36°54' W 076°20'0 0.0
2014-Oct-16 09:19N 36°54' W 076°20'2 1.9
2014-Oct-16 08:28N 36°56' W 076°20'  
Track history (hours):
 
Tides and Currents Weather Stations Pressure Air Temp Water Temp Dewpoint Dewpoint Depression Visibility Wind Speed Wind Dir Waves Ship Positions

Saigon Express

Last reported at 2014-Oct-26 07:33 UTC. Time now 2014-Oct-26 07:43 UTC.
Position N 39°05' W 032°03'.

Length 260 m; draft 11.8 m.

Type: Ship (hazmat cat A). MMSI: 477106800.

Date/timePositionNaut miles runAvg speedWind from/ knotsBaromVisibWave heightAir tempDewpointWater temp
2014-Oct-26 07:33N 39°05' W 032°03'  
2014-Oct-19 00:28N 32°06' W 080°60'6 6.6
2014-Oct-18 23:33N 32°06' W 081°07'2 1.4
2014-Oct-18 22:21N 32°08' W 081°08'0 0.0
2014-Oct-18 21:33N 32°08' W 081°08'0 0.0
2014-Oct-18 20:33N 32°08' W 081°08'0 0.0
2014-Oct-18 19:29N 32°08' W 081°08'0 0.0
2014-Oct-18 18:33N 32°08' W 081°08'0 0.0
2014-Oct-18 17:32N 32°08' W 081°08'0 0.0
2014-Oct-18 16:32N 32°08' W 081°08'0 0.0
2014-Oct-18 15:33N 32°08' W 081°08'0 0.0
2014-Oct-18 14:33N 32°08' W 081°08'0 0.0
2014-Oct-18 13:29N 32°08' W 081°08'0 0.0
2014-Oct-18 12:33N 32°08' W 081°08'0 0.0
2014-Oct-18 11:30N 32°08' W 081°08'0 0.0
2014-Oct-18 10:29N 32°08' W 081°08'0 0.0
2014-Oct-18 09:32N 32°08' W 081°08'2 2.4
2014-Oct-18 08:31N 32°06' W 081°06'6 5.9
2014-Oct-18 07:33N 32°06' W 080°60'1312.5
2014-Oct-18 06:33N 31°60' W 080°47'38114.0
2014-Oct-17 03:21N 36°50' W 075°48'1215.1
2014-Oct-17 02:33N 36°57' W 076°00'16 2.0
2014-Oct-16 18:31N 36°54' W 076°20'0 0.0
2014-Oct-16 17:13N 36°54' W 076°20'0 0.0
2014-Oct-16 13:31N 36°54' W 076°20'0 0.0
2014-Oct-16 11:28N 36°54' W 076°20'0 0.0
2014-Oct-16 10:04N 36°54' W 076°20'0 0.0
2014-Oct-16 09:19N 36°54' W 076°20'2 1.9
2014-Oct-16 08:28N 36°56' W 076°20'  

Dump ship's entire track history